createdAt,value
2022-10-26T00:00:26.134Z,18.40
2022-10-26T00:03:14.522Z,18.40
2022-10-26T00:06:07.458Z,18.30
2022-10-26T00:08:56.316Z,18.30
2022-10-26T00:11:44.665Z,18.30
2022-10-26T00:14:34.396Z,18.30
2022-10-26T00:17:22.717Z,18.30
2022-10-26T00:20:11.750Z,18.30
2022-10-26T00:23:00.123Z,18.30
2022-10-26T00:25:55.667Z,18.30
2022-10-26T00:28:44.003Z,18.20
2022-10-26T00:31:33.798Z,18.20
2022-10-26T00:34:22.162Z,18.20
2022-10-26T00:37:10.594Z,18.20
2022-10-26T00:39:58.972Z,18.20
2022-10-26T00:42:47.551Z,18.20
2022-10-26T00:45:36.234Z,18.10
2022-10-26T00:48:28.431Z,18.10
2022-10-26T00:51:26.454Z,18.20
2022-10-26T00:54:19.058Z,18.20
2022-10-26T00:57:07.470Z,18.20
2022-10-26T00:59:55.969Z,18.20
2022-10-26T01:02:44.335Z,18.30
2022-10-26T01:05:34.189Z,18.30
2022-10-26T01:08:22.597Z,18.30
2022-10-26T01:11:10.943Z,18.30
2022-10-26T01:13:59.473Z,18.30
2022-10-26T01:16:56.738Z,18.30
2022-10-26T01:20:45.902Z,18.30
2022-10-26T01:23:39.061Z,18.30
2022-10-26T01:27:05.425Z,18.30
2022-10-26T01:30:25.102Z,18.30
2022-10-26T01:33:30.783Z,18.30
2022-10-26T01:36:24.395Z,18.20
2022-10-26T01:39:16.280Z,18.20
2022-10-26T01:42:04.849Z,18.20
2022-10-26T01:44:55.407Z,18.10
2022-10-26T01:47:45.390Z,18.10
2022-10-26T01:50:33.812Z,18.10
2022-10-26T01:53:22.187Z,18.20
2022-10-26T01:56:13.835Z,18.20
2022-10-26T01:59:20.541Z,18.20
2022-10-26T02:02:33.836Z,18.20
2022-10-26T02:05:36.570Z,18.20
2022-10-26T02:08:50.126Z,18.30
2022-10-26T02:11:40.989Z,18.20
2022-10-26T02:14:34.736Z,18.30
2022-10-26T02:17:28.543Z,18.30
2022-10-26T02:20:19.635Z,18.30
2022-10-26T02:23:09.420Z,18.30
2022-10-26T02:25:59.152Z,18.30
2022-10-26T02:28:50.926Z,18.30
2022-10-26T02:31:39.489Z,18.30
2022-10-26T02:34:28.288Z,18.20
2022-10-26T02:37:17.191Z,18.20
2022-10-26T02:40:12.256Z,18.20
2022-10-26T02:43:03.004Z,18.20
2022-10-26T02:45:54.429Z,18.10
2022-10-26T02:48:42.849Z,18.10
2022-10-26T02:51:35.521Z,18.10
2022-10-26T02:54:29.020Z,18.00
2022-10-26T02:57:20.654Z,18.00
2022-10-26T03:03:04.182Z,18.00
2022-10-26T03:05:52.677Z,18.00
2022-10-26T03:08:41.187Z,18.00
2022-10-26T03:11:29.612Z,18.00
2022-10-26T03:14:19.360Z,18.10
2022-10-26T03:17:07.783Z,18.10
2022-10-26T03:19:56.669Z,18.10
2022-10-26T03:22:45.110Z,18.10
2022-10-26T03:25:33.460Z,18.10
2022-10-26T03:28:21.860Z,18.10
2022-10-26T03:31:11.589Z,18.10
2022-10-26T03:34:00.077Z,18.10
2022-10-26T03:36:48.566Z,18.10
2022-10-26T03:39:36.978Z,18.10
2022-10-26T03:42:25.560Z,18.10
2022-10-26T03:45:13.942Z,18.10
2022-10-26T03:48:03.815Z,18.20
2022-10-26T03:50:52.276Z,18.20
2022-10-26T03:53:40.714Z,18.20
2022-10-26T03:56:29.125Z,18.30
2022-10-26T03:59:17.507Z,18.30
2022-10-26T04:02:05.887Z,18.30
2022-10-26T04:04:55.556Z,18.30
2022-10-26T04:07:44.058Z,18.30
2022-10-26T04:10:32.722Z,18.30
2022-10-26T04:13:21.140Z,18.30
2022-10-26T04:16:09.616Z,18.20
2022-10-26T04:18:57.997Z,18.20
2022-10-26T04:21:47.695Z,18.10
2022-10-26T04:24:36.067Z,18.00
2022-10-26T04:27:24.526Z,18.00
2022-10-26T04:30:14.357Z,17.90
2022-10-26T04:33:02.822Z,17.90
2022-10-26T04:35:51.227Z,17.80
2022-10-26T04:38:40.971Z,17.80
2022-10-26T04:41:29.351Z,17.80
2022-10-26T04:44:17.682Z,17.70
2022-10-26T04:47:06.165Z,17.70
2022-10-26T04:49:54.545Z,17.60
2022-10-26T04:52:42.979Z,17.60
2022-10-26T04:55:32.755Z,17.50
2022-10-26T04:58:21.189Z,17.40
2022-10-26T05:01:09.770Z,17.40
2022-10-26T05:03:58.246Z,17.30
2022-10-26T05:06:46.656Z,17.30
2022-10-26T05:09:35.363Z,17.20
2022-10-26T05:12:25.324Z,17.10
2022-10-26T05:15:15.350Z,17.10
2022-10-26T05:18:05.528Z,17.10
2022-10-26T05:20:54.361Z,17.00
2022-10-26T05:23:42.986Z,17.00
2022-10-26T05:26:31.435Z,17.00
2022-10-26T05:29:21.532Z,17.00
2022-10-26T05:32:10.299Z,17.00
2022-10-26T05:34:58.826Z,17.00
2022-10-26T05:37:47.294Z,17.00
2022-10-26T05:40:35.766Z,17.20
2022-10-26T05:43:25.352Z,17.30
2022-10-26T05:46:15.549Z,17.40
2022-10-26T05:49:04.028Z,17.50
2022-10-26T05:51:52.626Z,17.60
2022-10-26T05:54:41.002Z,17.60
2022-10-26T05:57:31.198Z,17.70
2022-10-26T06:00:22.451Z,17.80
2022-10-26T06:03:21.311Z,17.80
2022-10-26T06:05:54.499Z,18.00
2022-10-26T06:08:25.916Z,17.90
2022-10-26T06:10:56.258Z,17.70
2022-10-26T06:13:25.274Z,17.70
2022-10-26T06:16:04.654Z,17.90
2022-10-26T06:18:45.482Z,18.00
2022-10-26T06:21:29.389Z,18.00
2022-10-26T06:24:06.633Z,18.10
2022-10-26T06:26:45.776Z,18.20
2022-10-26T06:29:25.357Z,18.30
2022-10-26T06:31:58.376Z,18.00
2022-10-26T06:34:38.054Z,18.30
2022-10-26T06:37:11.375Z,18.30
2022-10-26T06:39:51.347Z,18.40
2022-10-26T06:42:26.725Z,18.60
2022-10-26T06:44:57.885Z,18.50
2022-10-26T06:47:31.512Z,18.60
2022-10-26T06:50:08.785Z,18.70
2022-10-26T06:52:44.515Z,18.80
2022-10-26T06:55:19.420Z,18.80
2022-10-26T06:57:50.470Z,18.70
2022-10-26T07:00:21.437Z,18.90
2022-10-26T07:02:50.616Z,18.90
2022-10-26T07:05:20.340Z,19.00
2022-10-26T07:07:49.061Z,19.00
2022-10-26T07:10:17.657Z,19.10
2022-10-26T07:12:45.985Z,19.10
2022-10-26T07:15:14.303Z,19.20
2022-10-26T07:17:46.171Z,19.30
2022-10-26T07:20:20.502Z,19.50
2022-10-26T07:22:54.218Z,19.40
2022-10-26T07:25:22.591Z,19.40
2022-10-26T07:27:51.111Z,19.40
2022-10-26T07:30:19.596Z,19.40
2022-10-26T07:32:48.011Z,19.50
2022-10-26T07:35:16.536Z,19.50
2022-10-26T07:37:44.598Z,19.50
2022-10-26T07:40:14.781Z,19.60
2022-10-26T07:42:45.537Z,19.50
2022-10-26T07:45:22.020Z,19.50
2022-10-26T07:47:51.059Z,19.60
2022-10-26T07:50:19.410Z,19.50
2022-10-26T07:52:47.919Z,19.60
2022-10-26T07:55:17.982Z,19.60
2022-10-26T07:57:48.567Z,19.80
2022-10-26T08:00:22.500Z,19.60
2022-10-26T08:02:52.179Z,19.70
2022-10-26T08:05:23.519Z,19.60
2022-10-26T08:07:52.131Z,19.70
2022-10-26T08:10:24.491Z,19.70
2022-10-26T08:12:58.443Z,19.70
2022-10-26T08:15:26.886Z,19.70
2022-10-26T08:17:55.187Z,19.70
2022-10-26T08:20:23.429Z,19.80
2022-10-26T08:22:52.859Z,19.90
2022-10-26T08:25:22.581Z,19.80
2022-10-26T08:27:50.825Z,19.80
2022-10-26T08:30:19.226Z,19.90
2022-10-26T08:32:47.623Z,19.90
2022-10-26T08:35:16.652Z,19.90
2022-10-26T08:37:44.849Z,20.00
2022-10-26T08:40:16.938Z,20.00
2022-10-26T08:42:48.611Z,20.00
2022-10-26T08:45:34.379Z,20.10
2022-10-26T08:48:17.356Z,20.10
2022-10-26T08:50:48.473Z,20.30
2022-10-26T08:53:24.493Z,20.30
2022-10-26T08:56:00.721Z,20.20
2022-10-26T08:58:34.529Z,20.30
2022-10-26T09:01:03.440Z,20.30
2022-10-26T09:03:33.621Z,20.40
2022-10-26T09:06:17.943Z,20.50
2022-10-26T09:12:10.270Z,20.80
2022-10-26T09:14:46.263Z,21.00
2022-10-26T09:17:21.972Z,21.00
2022-10-26T09:20:17.851Z,21.10
2022-10-26T09:22:50.415Z,21.10
2022-10-26T09:28:21.385Z,21.20
2022-10-26T09:30:51.156Z,21.30
2022-10-26T09:33:20.754Z,21.50
2022-10-26T09:35:51.308Z,21.50
2022-10-26T09:38:35.156Z,21.40
2022-10-26T09:41:07.077Z,21.50
2022-10-26T09:43:45.231Z,21.70
2022-10-26T09:46:17.197Z,21.80
2022-10-26T09:48:54.478Z,21.80
2022-10-26T09:51:28.047Z,21.90
2022-10-26T09:53:57.262Z,21.80
2022-10-26T09:56:25.508Z,21.80
2022-10-26T09:59:02.028Z,21.90
2022-10-26T10:01:42.500Z,22.20
2022-10-26T10:04:26.170Z,22.30
2022-10-26T10:07:15.491Z,22.40
2022-10-26T10:09:46.833Z,22.50
2022-10-26T10:12:40.205Z,22.70
2022-10-26T10:15:22.219Z,23.00
2022-10-26T10:17:53.623Z,23.20
2022-10-26T10:20:26.319Z,23.30
2022-10-26T10:22:59.115Z,23.40
2022-10-26T10:25:35.828Z,23.40
2022-10-26T10:28:04.499Z,23.40
2022-10-26T10:30:33.875Z,23.40
2022-10-26T10:33:08.267Z,23.40
2022-10-26T10:35:36.897Z,23.40
2022-10-26T10:38:05.325Z,23.30
2022-10-26T10:40:33.464Z,23.30
2022-10-26T10:43:07.235Z,23.30
2022-10-26T10:45:35.320Z,23.20
2022-10-26T10:48:06.004Z,23.20
2022-10-26T10:50:34.326Z,23.20
2022-10-26T10:53:19.761Z,23.20
2022-10-26T10:56:10.765Z,23.20
2022-10-26T10:58:46.585Z,23.20
2022-10-26T11:01:15.726Z,23.20
2022-10-26T11:03:54.584Z,23.20
2022-10-26T11:06:23.652Z,23.20
2022-10-26T11:08:53.400Z,23.30
2022-10-26T11:11:23.545Z,23.30
2022-10-26T11:13:54.826Z,23.50
2022-10-26T11:16:25.756Z,23.70
2022-10-26T11:18:57.621Z,23.70
2022-10-26T11:21:29.232Z,23.90
2022-10-26T11:24:13.274Z,24.00
2022-10-26T11:26:46.333Z,24.20
2022-10-26T11:29:35.105Z,24.30
2022-10-26T11:32:13.226Z,24.30
2022-10-26T11:34:47.412Z,24.40
2022-10-26T11:37:20.770Z,24.50
2022-10-26T11:40:03.756Z,24.50
2022-10-26T11:42:35.927Z,24.60
2022-10-26T11:45:09.088Z,24.70
2022-10-26T11:47:41.799Z,24.70
2022-10-26T11:50:18.585Z,24.70
2022-10-26T11:52:50.337Z,24.60
2022-10-26T11:55:18.719Z,24.50
2022-10-26T11:57:47.759Z,24.50
2022-10-26T12:00:18.054Z,24.40
2022-10-26T12:02:49.922Z,24.30
2022-10-26T12:05:33.589Z,24.30
2022-10-26T12:08:04.996Z,24.20
2022-10-26T12:10:34.356Z,24.20
2022-10-26T12:13:09.042Z,24.20
2022-10-26T12:16:02.175Z,24.20
2022-10-26T12:18:54.527Z,24.20
2022-10-26T12:21:27.378Z,24.10
2022-10-26T12:23:57.175Z,24.10
2022-10-26T12:26:53.471Z,24.10
2022-10-26T12:29:36.550Z,24.10
2022-10-26T12:32:29.220Z,24.00
2022-10-26T12:35:02.844Z,24.00
2022-10-26T12:37:37.058Z,24.00
2022-10-26T12:40:41.673Z,24.00
2022-10-26T12:43:36.817Z,24.00
2022-10-26T12:46:45.205Z,24.10
2022-10-26T12:50:09.151Z,24.10
2022-10-26T12:52:46.030Z,24.20
2022-10-26T12:55:51.880Z,24.40
2022-10-26T12:59:03.715Z,24.50
2022-10-26T13:02:03.632Z,24.80
2022-10-26T13:05:23.255Z,25.10
2022-10-26T13:07:52.732Z,25.40
2022-10-26T13:10:23.019Z,25.60
2022-10-26T13:12:54.024Z,25.70
2022-10-26T13:15:25.389Z,25.80
2022-10-26T13:18:02.460Z,25.90
2022-10-26T13:20:31.559Z,26.00
2022-10-26T13:25:31.292Z,26.00
2022-10-26T13:28:05.812Z,25.90
2022-10-26T13:30:48.275Z,25.90
2022-10-26T13:33:23.403Z,25.80
2022-10-26T13:35:54.595Z,25.80
2022-10-26T13:38:26.762Z,25.80
2022-10-26T13:41:01.508Z,25.80
2022-10-26T13:43:29.700Z,25.90
2022-10-26T13:45:59.888Z,26.00
2022-10-26T13:48:38.553Z,26.00
2022-10-26T13:51:15.762Z,26.20
2022-10-26T13:53:48.607Z,26.40
2022-10-26T13:56:24.385Z,26.60
2022-10-26T13:58:56.343Z,26.70
2022-10-26T14:01:25.874Z,26.90
2022-10-26T14:03:54.224Z,27.00
2022-10-26T14:06:27.911Z,27.10
2022-10-26T14:08:59.811Z,27.30
2022-10-26T14:11:33.768Z,27.30
2022-10-26T14:14:02.061Z,27.30
2022-10-26T14:16:31.737Z,27.30
2022-10-26T14:18:59.820Z,27.40
2022-10-26T14:21:27.906Z,27.50
2022-10-26T14:23:58.582Z,27.60
2022-10-26T14:26:28.346Z,27.70
2022-10-26T14:28:57.890Z,27.80
2022-10-26T14:31:28.410Z,27.90
2022-10-26T14:33:57.581Z,28.10
2022-10-26T14:36:29.934Z,28.20
2022-10-26T14:39:02.760Z,28.30
2022-10-26T14:41:31.922Z,28.40
2022-10-26T14:44:00.355Z,28.40
2022-10-26T14:46:29.917Z,28.40
2022-10-26T14:48:59.521Z,28.50
2022-10-26T14:51:28.699Z,28.50
2022-10-26T14:54:01.057Z,28.40
2022-10-26T14:56:32.009Z,28.40
2022-10-26T14:59:00.168Z,28.40
2022-10-26T15:01:33.157Z,28.40
2022-10-26T15:04:05.313Z,28.40
2022-10-26T15:06:42.333Z,28.30
2022-10-26T15:09:38.943Z,28.30
2022-10-26T15:12:09.404Z,28.30
2022-10-26T15:14:37.540Z,28.30
2022-10-26T15:17:05.683Z,28.20
2022-10-26T15:19:40.482Z,28.20
2022-10-26T15:22:21.647Z,28.10
2022-10-26T15:24:53.087Z,28.00
2022-10-26T15:27:21.226Z,28.00
2022-10-26T15:29:51.064Z,28.00
2022-10-26T15:32:31.697Z,27.90
2022-10-26T15:35:33.905Z,27.90
2022-10-26T15:38:02.116Z,27.90
2022-10-26T15:40:31.525Z,27.80
2022-10-26T15:43:01.484Z,27.80
2022-10-26T15:45:34.911Z,27.70
2022-10-26T15:48:19.336Z,27.50
2022-10-26T15:50:47.520Z,27.30
2022-10-26T15:53:20.614Z,27.20
2022-10-26T15:55:50.380Z,27.00
2022-10-26T15:58:18.513Z,26.80
2022-10-26T16:00:46.688Z,26.60
2022-10-26T16:03:22.864Z,26.40
2022-10-26T16:05:52.760Z,26.20
2022-10-26T16:08:20.817Z,26.00
2022-10-26T16:10:51.041Z,25.90
2022-10-26T16:13:19.148Z,25.70
2022-10-26T16:15:47.233Z,25.50
2022-10-26T16:18:15.485Z,25.40
2022-10-26T16:20:46.477Z,25.20
2022-10-26T16:23:14.600Z,25.00
2022-10-26T16:25:44.357Z,24.80
2022-10-26T16:28:15.026Z,24.60
2022-10-26T16:30:43.178Z,24.40
2022-10-26T16:33:11.488Z,24.30
2022-10-26T16:35:39.543Z,24.00
2022-10-26T16:38:07.591Z,23.80
2022-10-26T16:40:35.750Z,23.60
2022-10-26T16:43:03.920Z,23.40
2022-10-26T16:45:33.508Z,23.30
2022-10-26T16:48:05.753Z,23.10
2022-10-26T16:50:36.337Z,23.00
2022-10-26T16:53:05.035Z,22.80
2022-10-26T16:55:33.358Z,22.60
2022-10-26T16:58:01.549Z,22.50
2022-10-26T17:00:29.748Z,22.30
2022-10-26T17:03:00.819Z,22.10
2022-10-26T17:05:28.924Z,22.00
2022-10-26T17:07:57.183Z,21.80
2022-10-26T17:10:27.852Z,21.70
2022-10-26T17:12:57.284Z,21.60
2022-10-26T17:15:28.835Z,21.40
2022-10-26T17:17:57.193Z,21.40
2022-10-26T17:20:26.830Z,21.20
2022-10-26T17:22:55.017Z,21.20
2022-10-26T17:25:23.199Z,21.10
2022-10-26T17:27:51.323Z,21.00
2022-10-26T17:30:19.669Z,20.90
2022-10-26T17:32:48.072Z,20.90
2022-10-26T17:35:16.914Z,20.90
2022-10-26T17:37:46.606Z,20.80
2022-10-26T17:40:15.198Z,20.80
2022-10-26T17:42:43.416Z,20.70
2022-10-26T17:45:12.143Z,20.70
2022-10-26T17:47:40.303Z,20.70
2022-10-26T17:50:09.370Z,20.70
2022-10-26T17:52:37.716Z,20.70
2022-10-26T17:55:07.881Z,20.70
2022-10-26T17:57:36.077Z,20.60
2022-10-26T18:00:06.267Z,20.60
2022-10-26T18:02:40.847Z,20.60
2022-10-26T18:05:10.446Z,20.60
2022-10-26T18:07:38.570Z,20.70
2022-10-26T18:10:32.804Z,20.70
2022-10-26T18:12:58.061Z,20.70
2022-10-26T18:15:26.329Z,20.70
2022-10-26T18:17:58.276Z,20.70
2022-10-26T18:20:28.798Z,20.70
2022-10-26T18:22:57.491Z,20.70
2022-10-26T18:25:27.098Z,20.70
2022-10-26T18:27:55.390Z,20.70
2022-10-26T18:30:23.718Z,20.70
2022-10-26T18:32:52.433Z,20.60
2022-10-26T18:35:20.877Z,20.60
2022-10-26T18:37:49.372Z,20.50
2022-10-26T18:40:18.004Z,20.50
2022-10-26T18:42:47.660Z,20.40
2022-10-26T18:45:16.008Z,20.30
2022-10-26T18:47:44.125Z,20.30
2022-10-26T18:50:12.309Z,20.20
2022-10-26T18:52:40.518Z,20.10
2022-10-26T18:55:10.402Z,20.10
2022-10-26T18:57:38.460Z,20.00
2022-10-26T19:00:10.060Z,19.90
2022-10-26T19:02:38.226Z,19.90
2022-10-26T19:05:07.918Z,19.80
2022-10-26T19:07:38.976Z,19.80
2022-10-26T19:10:09.256Z,19.70
2022-10-26T19:12:37.454Z,19.70
2022-10-26T19:15:08.270Z,19.60
2022-10-26T19:17:36.501Z,19.50
2022-10-26T19:20:05.657Z,19.50
2022-10-26T19:22:33.902Z,19.40
2022-10-26T19:25:03.758Z,19.40
2022-10-26T19:27:31.957Z,19.30
2022-10-26T19:30:00.065Z,19.20
2022-10-26T19:32:29.844Z,19.20
2022-10-26T19:34:58.040Z,19.20
2022-10-26T19:37:28.494Z,19.20
2022-10-26T19:39:56.977Z,19.10
2022-10-26T19:42:25.163Z,19.00
2022-10-26T19:44:53.322Z,19.00
2022-10-26T19:47:21.484Z,18.90
2022-10-26T19:49:50.994Z,18.90
2022-10-26T19:54:52.118Z,18.80
2022-10-26T19:57:20.260Z,18.80
2022-10-26T19:59:48.461Z,18.70
2022-10-26T20:02:16.716Z,18.70
2022-10-26T20:05:04.830Z,18.60
2022-10-26T20:07:53.280Z,18.60
2022-10-26T20:10:42.325Z,18.60
2022-10-26T20:13:30.727Z,18.60
2022-10-26T20:16:19.122Z,18.50
2022-10-26T20:19:07.581Z,18.50
2022-10-26T20:21:57.465Z,18.50
2022-10-26T20:24:45.866Z,18.50
2022-10-26T20:27:34.258Z,18.40
2022-10-26T20:30:22.631Z,18.40
2022-10-26T20:33:11.258Z,18.40
2022-10-26T20:35:59.960Z,18.30
2022-10-26T20:38:50.582Z,18.30
2022-10-26T20:41:43.378Z,18.30
2022-10-26T20:44:34.417Z,18.20
2022-10-26T20:47:23.632Z,18.20
2022-10-26T20:50:15.145Z,18.20
2022-10-26T20:53:05.505Z,18.20
2022-10-26T20:55:57.716Z,18.10
2022-10-26T20:58:48.151Z,18.10
2022-10-26T21:01:38.140Z,18.10
2022-10-26T21:04:26.653Z,18.10
2022-10-26T21:07:15.049Z,18.10
2022-10-26T21:10:03.450Z,18.10
2022-10-26T21:12:53.367Z,18.00
2022-10-26T21:15:42.024Z,18.00
2022-10-26T21:18:30.431Z,18.00
2022-10-26T21:21:18.845Z,18.00
2022-10-26T21:24:08.002Z,18.00
2022-10-26T21:26:56.808Z,18.00
2022-10-26T21:29:46.604Z,18.00
2022-10-26T21:32:35.046Z,18.00
2022-10-26T21:35:23.807Z,18.00
2022-10-26T21:38:12.205Z,17.90
2022-10-26T21:41:04.753Z,17.90
2022-10-26T21:44:03.340Z,17.90
2022-10-26T21:46:58.751Z,17.90
2022-10-26T21:49:47.302Z,17.80
2022-10-26T21:52:35.903Z,17.80
2022-10-26T21:55:24.593Z,17.80
2022-10-26T21:58:13.161Z,17.80
2022-10-26T22:01:08.204Z,17.70
2022-10-26T22:03:58.252Z,17.70
2022-10-26T22:06:46.611Z,17.70
2022-10-26T22:09:40.748Z,17.60
2022-10-26T22:12:38.252Z,17.60
2022-10-26T22:15:26.695Z,17.60
2022-10-26T22:18:15.369Z,17.60
2022-10-26T22:21:05.547Z,17.50
2022-10-26T22:23:53.953Z,17.50
2022-10-26T22:26:42.341Z,17.50
2022-10-26T22:29:30.981Z,17.50
2022-10-26T22:32:22.075Z,17.40
2022-10-26T22:35:24.816Z,17.40
2022-10-26T22:38:18.616Z,17.40
2022-10-26T22:41:07.302Z,17.40
2022-10-26T22:43:55.706Z,17.40
2022-10-26T22:46:44.328Z,17.40
2022-10-26T22:49:32.726Z,17.40
2022-10-26T22:52:22.552Z,17.40
2022-10-26T22:55:12.380Z,17.40
2022-10-26T22:58:00.779Z,17.30
2022-10-26T23:00:49.239Z,17.30
2022-10-26T23:03:37.707Z,17.20
2022-10-26T23:06:27.718Z,17.20
2022-10-26T23:09:16.138Z,17.20
2022-10-26T23:12:06.184Z,17.10
2022-10-26T23:14:54.730Z,17.10
2022-10-26T23:17:43.109Z,17.10
2022-10-26T23:20:33.447Z,17.10
2022-10-26T23:23:21.847Z,17.10
2022-10-26T23:26:12.044Z,17.00
2022-10-26T23:29:01.771Z,17.00
2022-10-26T23:31:50.270Z,17.00
2022-10-26T23:34:38.662Z,17.00
2022-10-26T23:37:27.064Z,17.00
2022-10-26T23:40:15.597Z,17.10
2022-10-26T23:43:04.126Z,17.00
2022-10-26T23:45:54.033Z,17.00
2022-10-26T23:48:42.408Z,17.00
2022-10-26T23:51:30.791Z,17.00
2022-10-26T23:54:19.179Z,17.00
2022-10-26T23:57:07.609Z,17.00
2022-10-26T23:59:56.008Z,17.00
